sensor_id;sensor_type;location;lat;lon;timestamp;pressure;altitude;pressure_sealevel;temperature;humidity
22649;BME280;11491;41.942;24.220;2023-02-23T00:01:10;89761.25;;;2.49;71.72
22649;BME280;11491;41.942;24.220;2023-02-23T00:03:37;89756.13;;;2.52;71.40
22649;BME280;11491;41.942;24.220;2023-02-23T00:06:05;89750.06;;;2.52;72.16
22649;BME280;11491;41.942;24.220;2023-02-23T00:08:32;89755.22;;;2.34;72.71
22649;BME280;11491;41.942;24.220;2023-02-23T00:11:02;89756.97;;;2.39;72.60
22649;BME280;11491;41.942;24.220;2023-02-23T00:13:30;89751.25;;;2.46;70.40
22649;BME280;11491;41.942;24.220;2023-02-23T00:15:57;89754.59;;;2.37;71.26
22649;BME280;11491;41.942;24.220;2023-02-23T00:18:24;89754.66;;;2.24;71.45
22649;BME280;11491;41.942;24.220;2023-02-23T00:20:55;89762.66;;;2.19;72.61
22649;BME280;11491;41.942;24.220;2023-02-23T00:23:23;89760.91;;;2.14;73.26
22649;BME280;11491;41.942;24.220;2023-02-23T00:25:52;89761.50;;;2.11;73.86
22649;BME280;11491;41.942;24.220;2023-02-23T00:28:20;89761.69;;;2.14;73.95
22649;BME280;11491;41.942;24.220;2023-02-23T00:30:47;89753.47;;;2.16;73.82
22649;BME280;11491;41.942;24.220;2023-02-23T00:33:13;89758.56;;;2.26;73.98
22649;BME280;11491;41.942;24.220;2023-02-23T00:35:40;89758.19;;;2.19;73.70
22649;BME280;11491;41.942;24.220;2023-02-23T00:38:07;89754.44;;;2.20;73.12
22649;BME280;11491;41.942;24.220;2023-02-23T00:40:34;89748.78;;;2.13;72.40
22649;BME280;11491;41.942;24.220;2023-02-23T00:43:00;89754.34;;;2.25;72.02
22649;BME280;11491;41.942;24.220;2023-02-23T00:45:28;89751.09;;;2.28;71.53
22649;BME280;11491;41.942;24.220;2023-02-23T00:47:55;89747.25;;;2.12;72.02
22649;BME280;11491;41.942;24.220;2023-02-23T00:50:22;89748.03;;;1.99;72.19
22649;BME280;11491;41.942;24.220;2023-02-23T00:52:49;89743.84;;;1.98;73.34
22649;BME280;11491;41.942;24.220;2023-02-23T00:55:15;89733.00;;;1.85;74.23
22649;BME280;11491;41.942;24.220;2023-02-23T00:57:42;89743.16;;;1.78;74.42
22649;BME280;11491;41.942;24.220;2023-02-23T01:00:10;89738.50;;;1.75;74.79
22649;BME280;11491;41.942;24.220;2023-02-23T01:02:47;89732.81;;;1.68;75.19
22649;BME280;11491;41.942;24.220;2023-02-23T01:05:14;89739.25;;;1.76;75.59
22649;BME280;11491;41.942;24.220;2023-02-23T01:07:42;89737.31;;;1.81;75.18
22649;BME280;11491;41.942;24.220;2023-02-23T01:10:11;89737.19;;;2.00;73.12
22649;BME280;11491;41.942;24.220;2023-02-23T01:12:48;89738.78;;;1.87;73.73
22649;BME280;11491;41.942;24.220;2023-02-23T01:15:16;89738.28;;;1.85;73.92
22649;BME280;11491;41.942;24.220;2023-02-23T01:17:44;89738.06;;;1.96;72.79
22649;BME280;11491;41.942;24.220;2023-02-23T01:20:13;89743.56;;;1.85;73.54
22649;BME280;11491;41.942;24.220;2023-02-23T01:22:42;89730.47;;;1.80;73.60
22649;BME280;11491;41.942;24.220;2023-02-23T01:25:11;89743.38;;;1.82;73.87
22649;BME280;11491;41.942;24.220;2023-02-23T01:27:38;89736.25;;;1.82;74.41
22649;BME280;11491;41.942;24.220;2023-02-23T01:30:06;89738.09;;;1.68;74.73
22649;BME280;11491;41.942;24.220;2023-02-23T01:32:34;89735.56;;;1.77;74.80
22649;BME280;11491;41.942;24.220;2023-02-23T01:35:02;89734.94;;;1.93;73.35
22649;BME280;11491;41.942;24.220;2023-02-23T01:37:30;89732.91;;;1.90;73.53
22649;BME280;11491;41.942;24.220;2023-02-23T01:39:59;89720.13;;;1.70;74.15
22649;BME280;11491;41.942;24.220;2023-02-23T01:42:29;89725.81;;;1.77;74.02
22649;BME280;11491;41.942;24.220;2023-02-23T01:45:20;89729.97;;;1.78;73.84
22649;BME280;11491;41.942;24.220;2023-02-23T01:47:48;89733.81;;;1.72;73.68
22649;BME280;11491;41.942;24.220;2023-02-23T01:50:16;89731.94;;;1.59;74.84
22649;BME280;11491;41.942;24.220;2023-02-23T01:52:46;89736.56;;;1.67;74.25
22649;BME280;11491;41.942;24.220;2023-02-23T01:55:15;89727.56;;;1.54;74.85
22649;BME280;11491;41.942;24.220;2023-02-23T01:57:48;89727.94;;;1.47;75.76
22649;BME280;11491;41.942;24.220;2023-02-23T02:00:18;89733.13;;;1.53;76.21
22649;BME280;11491;41.942;24.220;2023-02-23T02:02:45;89731.47;;;1.57;76.38
22649;BME280;11491;41.942;24.220;2023-02-23T02:05:14;89737.44;;;1.62;75.32
22649;BME280;11491;41.942;24.220;2023-02-23T02:07:47;89732.81;;;1.68;73.99
22649;BME280;11491;41.942;24.220;2023-02-23T02:10:16;89732.44;;;1.61;73.98
22649;BME280;11491;41.942;24.220;2023-02-23T02:13:00;89735.06;;;1.61;74.30
22649;BME280;11491;41.942;24.220;2023-02-23T02:15:32;89728.34;;;1.55;74.97
22649;BME280;11491;41.942;24.220;2023-02-23T02:18:10;89732.63;;;1.50;75.45
22649;BME280;11491;41.942;24.220;2023-02-23T02:23:57;89735.84;;;1.20;76.59
22649;BME280;11491;41.942;24.220;2023-02-23T02:26:38;89739.34;;;1.29;75.77
22649;BME280;11491;41.942;24.220;2023-02-23T02:29:42;89723.06;;;1.27;75.38
22649;BME280;11491;41.942;24.220;2023-02-23T02:32:36;89737.69;;;1.33;74.42
22649;BME280;11491;41.942;24.220;2023-02-23T02:35:39;89732.22;;;1.43;74.51
22649;BME280;11491;41.942;24.220;2023-02-23T02:38:18;89734.19;;;1.38;74.57
22649;BME280;11491;41.942;24.220;2023-02-23T02:40:53;89733.41;;;1.37;75.50
22649;BME280;11491;41.942;24.220;2023-02-23T02:43:34;89729.09;;;1.41;75.26
22649;BME280;11491;41.942;24.220;2023-02-23T02:46:08;89722.78;;;1.42;75.34
22649;BME280;11491;41.942;24.220;2023-02-23T02:48:41;89722.06;;;1.23;76.08
22649;BME280;11491;41.942;24.220;2023-02-23T02:51:18;89718.56;;;1.14;75.72
22649;BME280;11491;41.942;24.220;2023-02-23T02:53:50;89715.41;;;1.12;77.48
22649;BME280;11491;41.942;24.220;2023-02-23T02:56:24;89725.00;;;1.07;77.44
22649;BME280;11491;41.942;24.220;2023-02-23T02:58:53;89726.16;;;1.29;75.41
22649;BME280;11491;41.942;24.220;2023-02-23T03:01:20;89724.03;;;1.31;75.63
22649;BME280;11491;41.942;24.220;2023-02-23T03:04:19;89727.75;;;1.30;74.90
22649;BME280;11491;41.942;24.220;2023-02-23T03:07:08;89724.13;;;1.26;74.93
22649;BME280;11491;41.942;24.220;2023-02-23T03:09:57;89724.91;;;1.13;75.62
22649;BME280;11491;41.942;24.220;2023-02-23T03:12:54;89722.25;;;1.13;76.87
22649;BME280;11491;41.942;24.220;2023-02-23T03:15:50;89721.59;;;1.21;77.17
22649;BME280;11491;41.942;24.220;2023-02-23T03:18:49;89725.00;;;1.07;76.47
22649;BME280;11491;41.942;24.220;2023-02-23T03:21:43;89717.91;;;1.22;75.25
22649;BME280;11491;41.942;24.220;2023-02-23T03:24:37;89729.19;;;1.08;75.76
22649;BME280;11491;41.942;24.220;2023-02-23T03:27:26;89734.25;;;1.19;75.89
22649;BME280;11491;41.942;24.220;2023-02-23T03:30:18;89717.38;;;0.92;76.45
22649;BME280;11491;41.942;24.220;2023-02-23T03:33:09;89725.56;;;1.04;75.46
22649;BME280;11491;41.942;24.220;2023-02-23T03:35:59;89715.59;;;1.01;76.06
22649;BME280;11491;41.942;24.220;2023-02-23T03:38:50;89726.53;;;0.95;76.50
22649;BME280;11491;41.942;24.220;2023-02-23T03:41:36;89715.78;;;0.91;77.01
22649;BME280;11491;41.942;24.220;2023-02-23T03:44:29;89719.13;;;1.11;75.73
22649;BME280;11491;41.942;24.220;2023-02-23T03:47:15;89721.28;;;1.08;75.65
22649;BME280;11491;41.942;24.220;2023-02-23T03:50:04;89727.91;;;0.92;76.36
22649;BME280;11491;41.942;24.220;2023-02-23T03:52:54;89723.59;;;0.96;76.27
22649;BME280;11491;41.942;24.220;2023-02-23T03:55:42;89727.88;;;0.59;77.82
22649;BME280;11491;41.942;24.220;2023-02-23T03:58:32;89728.13;;;0.44;79.41
22649;BME280;11491;41.942;24.220;2023-02-23T04:01:20;89730.66;;;0.68;79.12
22649;BME280;11491;41.942;24.220;2023-02-23T04:04:06;89734.72;;;0.60;79.19
22649;BME280;11491;41.942;24.220;2023-02-23T04:06:52;89720.63;;;0.70;79.15
22649;BME280;11491;41.942;24.220;2023-02-23T04:09:38;89726.81;;;0.60;79.66
22649;BME280;11491;41.942;24.220;2023-02-23T04:12:28;89726.66;;;0.71;78.16
22649;BME280;11491;41.942;24.220;2023-02-23T04:15:18;89731.56;;;0.91;76.64
22649;BME280;11491;41.942;24.220;2023-02-23T04:17:47;89723.69;;;0.91;76.59
22649;BME280;11491;41.942;24.220;2023-02-23T04:20:14;89729.44;;;0.93;75.83
22649;BME280;11491;41.942;24.220;2023-02-23T04:22:41;89718.09;;;0.79;76.00
22649;BME280;11491;41.942;24.220;2023-02-23T04:25:08;89722.94;;;0.72;77.01
22649;BME280;11491;41.942;24.220;2023-02-23T04:27:36;89714.97;;;0.77;76.51
22649;BME280;11491;41.942;24.220;2023-02-23T04:30:04;89724.13;;;0.79;76.37
22649;BME280;11491;41.942;24.220;2023-02-23T04:32:31;89721.03;;;0.91;75.38
22649;BME280;11491;41.942;24.220;2023-02-23T04:34:59;89719.09;;;0.83;75.88
22649;BME280;11491;41.942;24.220;2023-02-23T04:37:25;89724.19;;;0.93;75.87
22649;BME280;11491;41.942;24.220;2023-02-23T04:39:52;89724.53;;;0.73;76.97
22649;BME280;11491;41.942;24.220;2023-02-23T04:42:19;89731.50;;;0.63;77.36
22649;BME280;11491;41.942;24.220;2023-02-23T04:44:46;89724.34;;;0.83;76.92
22649;BME280;11491;41.942;24.220;2023-02-23T04:47:14;89721.22;;;0.81;77.44
22649;BME280;11491;41.942;24.220;2023-02-23T04:49:41;89722.72;;;0.87;77.04
22649;BME280;11491;41.942;24.220;2023-02-23T04:52:09;89724.75;;;0.90;76.37
22649;BME280;11491;41.942;24.220;2023-02-23T04:54:36;89728.44;;;0.89;76.20
22649;BME280;11491;41.942;24.220;2023-02-23T04:57:03;89733.88;;;0.79;77.03
22649;BME280;11491;41.942;24.220;2023-02-23T04:59:30;89718.84;;;0.66;76.56
22649;BME280;11491;41.942;24.220;2023-02-23T05:01:57;89729.56;;;0.69;76.71
22649;BME280;11491;41.942;24.220;2023-02-23T05:04:24;89723.13;;;0.61;78.09
22649;BME280;11491;41.942;24.220;2023-02-23T05:06:50;89736.53;;;0.79;76.87
22649;BME280;11491;41.942;24.220;2023-02-23T05:09:19;89733.53;;;0.85;75.61
22649;BME280;11491;41.942;24.220;2023-02-23T05:11:46;89732.94;;;0.89;75.17
22649;BME280;11491;41.942;24.220;2023-02-23T05:14:12;89736.16;;;0.85;75.81
22649;BME280;11491;41.942;24.220;2023-02-23T05:16:39;89743.59;;;0.64;77.32
22649;BME280;11491;41.942;24.220;2023-02-23T05:19:06;89746.88;;;0.56;78.22
22649;BME280;11491;41.942;24.220;2023-02-23T05:21:33;89740.81;;;0.75;77.36
22649;BME280;11491;41.942;24.220;2023-02-23T05:23:59;89731.41;;;0.69;77.46
22649;BME280;11491;41.942;24.220;2023-02-23T05:26:28;89758.06;;;0.48;78.56
22649;BME280;11491;41.942;24.220;2023-02-23T05:28:54;89757.81;;;0.63;78.34
22649;BME280;11491;41.942;24.220;2023-02-23T05:31:21;89765.91;;;0.67;77.83
22649;BME280;11491;41.942;24.220;2023-02-23T05:33:49;89763.34;;;0.81;77.64
22649;BME280;11491;41.942;24.220;2023-02-23T05:36:17;89755.09;;;0.69;78.09
22649;BME280;11491;41.942;24.220;2023-02-23T05:38:45;89763.41;;;0.76;78.78
22649;BME280;11491;41.942;24.220;2023-02-23T05:41:13;89758.50;;;0.88;77.95
22649;BME280;11491;41.942;24.220;2023-02-23T05:43:41;89772.97;;;1.04;77.94
22649;BME280;11491;41.942;24.220;2023-02-23T05:46:09;89770.81;;;1.06;77.39
22649;BME280;11491;41.942;24.220;2023-02-23T05:48:36;89778.00;;;0.87;77.37
22649;BME280;11491;41.942;24.220;2023-02-23T05:51:05;89781.00;;;0.94;78.54
22649;BME280;11491;41.942;24.220;2023-02-23T05:53:32;89775.09;;;0.70;79.11
22649;BME280;11491;41.942;24.220;2023-02-23T05:56:00;89782.69;;;0.90;79.27
22649;BME280;11491;41.942;24.220;2023-02-23T05:58:27;89773.19;;;0.89;79.05
22649;BME280;11491;41.942;24.220;2023-02-23T06:00:56;89781.25;;;0.79;80.37
22649;BME280;11491;41.942;24.220;2023-02-23T06:03:23;89782.16;;;1.07;78.30
22649;BME280;11491;41.942;24.220;2023-02-23T06:05:50;89789.56;;;1.19;78.25
22649;BME280;11491;41.942;24.220;2023-02-23T06:08:17;89786.94;;;1.19;78.85
22649;BME280;11491;41.942;24.220;2023-02-23T06:10:44;89788.38;;;1.11;78.67
22649;BME280;11491;41.942;24.220;2023-02-23T06:13:11;89789.00;;;1.22;79.54
22649;BME280;11491;41.942;24.220;2023-02-23T06:15:39;89769.59;;;1.18;78.89
22649;BME280;11491;41.942;24.220;2023-02-23T06:18:07;89790.59;;;1.50;78.52
22649;BME280;11491;41.942;24.220;2023-02-23T06:20:35;89790.50;;;1.56;78.37
22649;BME280;11491;41.942;24.220;2023-02-23T06:23:02;89797.63;;;1.69;78.48
22649;BME280;11491;41.942;24.220;2023-02-23T06:25:30;89805.84;;;1.81;78.63
22649;BME280;11491;41.942;24.220;2023-02-23T06:27:56;89791.59;;;1.82;78.42
22649;BME280;11491;41.942;24.220;2023-02-23T06:30:23;89803.91;;;2.01;78.12
22649;BME280;11491;41.942;24.220;2023-02-23T06:32:50;89808.41;;;2.14;77.82
22649;BME280;11491;41.942;24.220;2023-02-23T06:35:18;89806.22;;;2.16;78.20
22649;BME280;11491;41.942;24.220;2023-02-23T06:37:45;89811.28;;;2.40;77.59
22649;BME280;11491;41.942;24.220;2023-02-23T06:40:12;89813.97;;;2.63;77.47
22649;BME280;11491;41.942;24.220;2023-02-23T06:42:39;89811.19;;;2.82;77.28
22649;BME280;11491;41.942;24.220;2023-02-23T06:45:06;89816.00;;;3.02;76.41
22649;BME280;11491;41.942;24.220;2023-02-23T06:47:33;89820.81;;;3.22;76.12
22649;BME280;11491;41.942;24.220;2023-02-23T06:50:00;89809.78;;;3.43;75.33
22649;BME280;11491;41.942;24.220;2023-02-23T06:52:29;89814.53;;;3.63;75.73
22649;BME280;11491;41.942;24.220;2023-02-23T06:54:56;89805.72;;;3.77;75.77
22649;BME280;11491;41.942;24.220;2023-02-23T06:57:22;89809.88;;;4.00;75.19
22649;BME280;11491;41.942;24.220;2023-02-23T06:59:49;89808.72;;;4.24;74.58
22649;BME280;11491;41.942;24.220;2023-02-23T07:02:16;89806.16;;;4.50;73.75
22649;BME280;11491;41.942;24.220;2023-02-23T07:04:43;89811.00;;;4.74;72.80
22649;BME280;11491;41.942;24.220;2023-02-23T07:07:10;89809.31;;;4.95;72.03
22649;BME280;11491;41.942;24.220;2023-02-23T07:09:39;89805.25;;;5.24;71.42
22649;BME280;11491;41.942;24.220;2023-02-23T07:12:07;89802.44;;;5.47;70.80
22649;BME280;11491;41.942;24.220;2023-02-23T07:14:34;89789.88;;;5.73;70.98
22649;BME280;11491;41.942;24.220;2023-02-23T07:17:02;89791.72;;;5.99;69.72
22649;BME280;11491;41.942;24.220;2023-02-23T07:19:29;89803.47;;;6.28;68.34
22649;BME280;11491;41.942;24.220;2023-02-23T07:21:55;89799.47;;;6.51;66.84
22649;BME280;11491;41.942;24.220;2023-02-23T07:24:22;89802.72;;;6.78;66.11
22649;BME280;11491;41.942;24.220;2023-02-23T07:26:50;89788.94;;;7.05;66.17
22649;BME280;11491;41.942;24.220;2023-02-23T07:29:17;89789.06;;;7.30;65.15
22649;BME280;11491;41.942;24.220;2023-02-23T07:31:44;89782.94;;;7.50;64.65
22649;BME280;11491;41.942;24.220;2023-02-23T07:34:14;89787.03;;;7.81;63.89
22649;BME280;11491;41.942;24.220;2023-02-23T07:36:41;89779.41;;;8.04;62.61
22649;BME280;11491;41.942;24.220;2023-02-23T07:39:08;89776.03;;;8.28;61.26
22649;BME280;11491;41.942;24.220;2023-02-23T07:41:34;89782.25;;;8.57;60.30
22649;BME280;11491;41.942;24.220;2023-02-23T07:44:03;89775.81;;;8.82;59.65
22649;BME280;11491;41.942;24.220;2023-02-23T07:46:30;89781.22;;;9.11;59.45
22649;BME280;11491;41.942;24.220;2023-02-23T07:48:56;89775.03;;;9.35;58.64
22649;BME280;11491;41.942;24.220;2023-02-23T07:51:23;89772.69;;;9.61;56.96
22649;BME280;11491;41.942;24.220;2023-02-23T07:53:50;89771.06;;;9.85;56.68
22649;BME280;11491;41.942;24.220;2023-02-23T07:56:17;89767.13;;;10.10;56.19
22649;BME280;11491;41.942;24.220;2023-02-23T07:58:43;89767.00;;;10.35;55.35
22649;BME280;11491;41.942;24.220;2023-02-23T08:01:12;89764.16;;;10.60;55.27
22649;BME280;11491;41.942;24.220;2023-02-23T08:03:39;89773.53;;;10.85;55.34
22649;BME280;11491;41.942;24.220;2023-02-23T08:06:06;89760.75;;;10.94;51.21
22649;BME280;11491;41.942;24.220;2023-02-23T08:08:32;89770.59;;;11.26;51.29
22649;BME280;11491;41.942;24.220;2023-02-23T08:11:00;89764.91;;;11.47;50.63
22649;BME280;11491;41.942;24.220;2023-02-23T08:13:27;89761.81;;;11.83;50.51
22649;BME280;11491;41.942;24.220;2023-02-23T08:15:54;89755.59;;;12.18;49.69
22649;BME280;11491;41.942;24.220;2023-02-23T08:18:22;89753.63;;;12.61;48.74
22649;BME280;11491;41.942;24.220;2023-02-23T08:20:49;89758.28;;;12.91;46.57
22649;BME280;11491;41.942;24.220;2023-02-23T08:23:16;89756.34;;;13.14;42.61
22649;BME280;11491;41.942;24.220;2023-02-23T08:25:43;89756.66;;;13.36;42.92
22649;BME280;11491;41.942;24.220;2023-02-23T08:28:11;89750.28;;;13.78;43.87
22649;BME280;11491;41.942;24.220;2023-02-23T08:30:39;89759.22;;;14.23;43.99
22649;BME280;11491;41.942;24.220;2023-02-23T08:33:06;89753.06;;;14.56;42.08
22649;BME280;11491;41.942;24.220;2023-02-23T08:35:34;89758.28;;;14.46;43.04
22649;BME280;11491;41.942;24.220;2023-02-23T08:38:01;89751.78;;;14.47;43.02
22649;BME280;11491;41.942;24.220;2023-02-23T08:40:28;89754.19;;;14.55;43.58
22649;BME280;11491;41.942;24.220;2023-02-23T08:42:55;89757.84;;;14.77;42.73
22649;BME280;11491;41.942;24.220;2023-02-23T08:45:21;89754.16;;;15.00;41.65
22649;BME280;11491;41.942;24.220;2023-02-23T08:47:48;89756.16;;;15.10;41.54
22649;BME280;11491;41.942;24.220;2023-02-23T08:50:15;89757.84;;;15.33;40.59
22649;BME280;11491;41.942;24.220;2023-02-23T08:52:43;89764.28;;;15.80;40.84
22649;BME280;11491;41.942;24.220;2023-02-23T08:55:10;89762.91;;;16.22;39.86
22649;BME280;11491;41.942;24.220;2023-02-23T08:57:38;89756.47;;;16.76;38.19
22649;BME280;11491;41.942;24.220;2023-02-23T09:00:06;89758.47;;;17.15;38.04
22649;BME280;11491;41.942;24.220;2023-02-23T09:02:38;89753.06;;;17.44;37.05
22649;BME280;11491;41.942;24.220;2023-02-23T09:05:06;89755.34;;;17.60;36.93
22649;BME280;11491;41.942;24.220;2023-02-23T09:07:33;89760.66;;;17.96;36.55
22649;BME280;11491;41.942;24.220;2023-02-23T09:10:01;89731.28;;;18.05;36.37
22649;BME280;11491;41.942;24.220;2023-02-23T09:12:30;89750.41;;;18.46;35.76
22649;BME280;11491;41.942;24.220;2023-02-23T09:14:57;89750.94;;;18.90;34.88
22649;BME280;11491;41.942;24.220;2023-02-23T09:17:23;89755.41;;;19.18;34.38
22649;BME280;11491;41.942;24.220;2023-02-23T09:19:50;89753.41;;;19.26;34.21
22649;BME280;11491;41.942;24.220;2023-02-23T09:22:17;89752.16;;;19.34;33.91
22649;BME280;11491;41.942;24.220;2023-02-23T09:24:44;89752.94;;;19.34;33.99
22649;BME280;11491;41.942;24.220;2023-02-23T09:27:12;89739.56;;;19.58;33.85
22649;BME280;11491;41.942;24.220;2023-02-23T09:29:39;89758.72;;;19.85;33.56
22649;BME280;11491;41.942;24.220;2023-02-23T09:32:08;89744.84;;;19.76;32.38
22649;BME280;11491;41.942;24.220;2023-02-23T09:34:34;89748.84;;;19.57;32.55
22649;BME280;11491;41.942;24.220;2023-02-23T09:37:01;89749.94;;;19.67;31.68
22649;BME280;11491;41.942;24.220;2023-02-23T09:39:28;89753.06;;;19.65;33.71
22649;BME280;11491;41.942;24.220;2023-02-23T09:45:03;89745.94;;;20.20;33.89
22649;BME280;11491;41.942;24.220;2023-02-23T09:47:37;89741.31;;;20.78;32.29
22649;BME280;11491;41.942;24.220;2023-02-23T09:50:15;89739.25;;;21.13;31.37
22649;BME280;11491;41.942;24.220;2023-02-23T09:52:46;89739.38;;;21.06;31.73
22649;BME280;11491;41.942;24.220;2023-02-23T09:55:14;89734.13;;;21.19;30.98
22649;BME280;11491;41.942;24.220;2023-02-23T09:57:44;89744.91;;;20.99;31.20
22649;BME280;11491;41.942;24.220;2023-02-23T10:00:18;89736.06;;;21.18;31.76
22649;BME280;11491;41.942;24.220;2023-02-23T10:05:55;89743.66;;;20.76;32.11
22649;BME280;11491;41.942;24.220;2023-02-23T10:08:36;89735.66;;;20.35;32.03
22649;BME280;11491;41.942;24.220;2023-02-23T10:11:13;89735.91;;;19.79;31.75
22649;BME280;11491;41.942;24.220;2023-02-23T10:13:50;89744.13;;;19.65;33.75
22649;BME280;11491;41.942;24.220;2023-02-23T10:16:28;89740.00;;;19.94;33.36
22649;BME280;11491;41.942;24.220;2023-02-23T10:19:04;89730.47;;;19.34;33.20
22649;BME280;11491;41.942;24.220;2023-02-23T10:21:35;89732.63;;;19.53;33.79
22649;BME280;11491;41.942;24.220;2023-02-23T10:24:06;89732.94;;;19.63;33.81
22649;BME280;11491;41.942;24.220;2023-02-23T10:26:39;89733.66;;;20.08;32.56
22649;BME280;11491;41.942;24.220;2023-02-23T10:29:18;89727.81;;;20.10;33.70
22649;BME280;11491;41.942;24.220;2023-02-23T10:31:50;89732.00;;;20.18;32.52
22649;BME280;11491;41.942;24.220;2023-02-23T10:34:17;89725.28;;;19.95;32.12
22649;BME280;11491;41.942;24.220;2023-02-23T10:36:48;89711.16;;;19.32;32.80
22649;BME280;11491;41.942;24.220;2023-02-23T10:39:16;89723.63;;;19.22;33.56
22649;BME280;11491;41.942;24.220;2023-02-23T10:41:43;89720.69;;;19.02;34.68
22649;BME280;11491;41.942;24.220;2023-02-23T10:44:16;89712.38;;;18.71;35.32
22649;BME280;11491;41.942;24.220;2023-02-23T10:46:45;89711.09;;;18.20;34.90
22649;BME280;11491;41.942;24.220;2023-02-23T10:49:18;89712.56;;;18.36;36.06
22649;BME280;11491;41.942;24.220;2023-02-23T10:51:47;89711.91;;;18.17;35.84
22649;BME280;11491;41.942;24.220;2023-02-23T10:54:35;89708.56;;;17.70;36.98
22649;BME280;11491;41.942;24.220;2023-02-23T10:57:04;89709.66;;;17.98;37.17
22649;BME280;11491;41.942;24.220;2023-02-23T10:59:31;89699.75;;;17.59;36.65
22649;BME280;11491;41.942;24.220;2023-02-23T11:01:59;89705.16;;;17.41;37.33
22649;BME280;11491;41.942;24.220;2023-02-23T11:04:50;89675.06;;;17.50;37.23
22649;BME280;11491;41.942;24.220;2023-02-23T11:07:22;89703.59;;;17.58;37.15
22649;BME280;11491;41.942;24.220;2023-02-23T11:09:49;89696.31;;;17.40;37.41
22649;BME280;11491;41.942;24.220;2023-02-23T11:12:18;89705.97;;;17.27;38.53
22649;BME280;11491;41.942;24.220;2023-02-23T11:14:47;89702.88;;;17.32;37.91
22649;BME280;11491;41.942;24.220;2023-02-23T11:17:26;89709.03;;;17.40;38.18
22649;BME280;11491;41.942;24.220;2023-02-23T11:19:59;89696.59;;;17.75;38.66
22649;BME280;11491;41.942;24.220;2023-02-23T11:22:30;89693.13;;;18.55;37.85
22649;BME280;11491;41.942;24.220;2023-02-23T11:24:58;89660.38;;;18.94;35.92
22649;BME280;11491;41.942;24.220;2023-02-23T11:27:26;89695.06;;;19.10;35.87
22649;BME280;11491;41.942;24.220;2023-02-23T11:29:54;89698.13;;;19.16;35.91
22649;BME280;11491;41.942;24.220;2023-02-23T11:32:26;89698.88;;;18.64;36.35
22649;BME280;11491;41.942;24.220;2023-02-23T11:35:16;89691.50;;;18.68;36.05
22649;BME280;11491;41.942;24.220;2023-02-23T11:37:53;89691.78;;;18.18;36.50
22649;BME280;11491;41.942;24.220;2023-02-23T11:40:22;89693.81;;;18.00;37.08
22649;BME280;11491;41.942;24.220;2023-02-23T11:42:54;89698.84;;;17.98;37.57
22649;BME280;11491;41.942;24.220;2023-02-23T11:45:22;89689.53;;;18.06;36.64
22649;BME280;11491;41.942;24.220;2023-02-23T11:47:53;89695.03;;;17.92;37.65
22649;BME280;11491;41.942;24.220;2023-02-23T11:50:25;89700.47;;;17.84;37.51
22649;BME280;11491;41.942;24.220;2023-02-23T11:52:56;89708.13;;;17.97;37.55
22649;BME280;11491;41.942;24.220;2023-02-23T11:55:24;89698.19;;;17.58;38.28
22649;BME280;11491;41.942;24.220;2023-02-23T11:57:51;89704.38;;;17.55;37.48
22649;BME280;11491;41.942;24.220;2023-02-23T12:00:24;89706.66;;;17.63;38.28
22649;BME280;11491;41.942;24.220;2023-02-23T12:02:54;89704.47;;;16.97;37.88
22649;BME280;11491;41.942;24.220;2023-02-23T12:05:26;89712.00;;;16.02;39.13
22649;BME280;11491;41.942;24.220;2023-02-23T12:07:58;89717.75;;;15.20;41.80
22649;BME280;11491;41.942;24.220;2023-02-23T12:10:34;89705.19;;;14.76;42.07
22649;BME280;11491;41.942;24.220;2023-02-23T12:13:13;89705.56;;;14.78;42.84
22649;BME280;11491;41.942;24.220;2023-02-23T12:15:47;89703.81;;;15.04;43.13
22649;BME280;11491;41.942;24.220;2023-02-23T12:18:31;89713.03;;;15.65;42.86
22649;BME280;11491;41.942;24.220;2023-02-23T12:21:16;89708.16;;;15.96;40.87
22649;BME280;11491;41.942;24.220;2023-02-23T12:23:47;89711.81;;;15.56;41.85
22649;BME280;11491;41.942;24.220;2023-02-23T12:26:16;89715.34;;;15.04;42.75
22649;BME280;11491;41.942;24.220;2023-02-23T12:28:51;89706.34;;;14.34;44.02
22649;BME280;11491;41.942;24.220;2023-02-23T12:31:26;89708.78;;;13.72;46.05
22649;BME280;11491;41.942;24.220;2023-02-23T12:33:58;89718.91;;;13.52;46.84
22649;BME280;11491;41.942;24.220;2023-02-23T12:36:34;89721.63;;;13.55;47.45
22649;BME280;11491;41.942;24.220;2023-02-23T12:39:07;89727.00;;;13.89;47.11
22649;BME280;11491;41.942;24.220;2023-02-23T12:41:44;89730.72;;;14.15;46.86
22649;BME280;11491;41.942;24.220;2023-02-23T12:44:20;89721.44;;;14.09;46.75
22649;BME280;11491;41.942;24.220;2023-02-23T12:46:54;89736.31;;;13.65;47.76
22649;BME280;11491;41.942;24.220;2023-02-23T12:49:29;89740.84;;;13.61;48.80
22649;BME280;11491;41.942;24.220;2023-02-23T12:52:03;89741.91;;;13.53;49.19
22649;BME280;11491;41.942;24.220;2023-02-23T12:54:36;89740.63;;;13.43;49.60
22649;BME280;11491;41.942;24.220;2023-02-23T12:57:10;89741.16;;;13.26;50.88
22649;BME280;11491;41.942;24.220;2023-02-23T13:00:00;89737.69;;;12.99;50.77
22649;BME280;11491;41.942;24.220;2023-02-23T13:02:39;89745.19;;;12.86;51.39
22649;BME280;11491;41.942;24.220;2023-02-23T13:05:15;89731.09;;;12.66;53.13
22649;BME280;11491;41.942;24.220;2023-02-23T13:07:54;89713.59;;;12.76;52.95
22649;BME280;11491;41.942;24.220;2023-02-23T13:10:31;89742.81;;;13.34;52.56
22649;BME280;11491;41.942;24.220;2023-02-23T13:13:12;89744.25;;;13.54;51.39
22649;BME280;11491;41.942;24.220;2023-02-23T13:15:51;89713.41;;;13.14;51.87
22649;BME280;11491;41.942;24.220;2023-02-23T13:18:23;89745.44;;;13.04;52.56
22649;BME280;11491;41.942;24.220;2023-02-23T13:20:54;89746.72;;;12.60;54.51
22649;BME280;11491;41.942;24.220;2023-02-23T13:23:31;89755.00;;;12.28;56.10
22649;BME280;11491;41.942;24.220;2023-02-23T13:26:06;89755.53;;;11.76;57.48
22649;BME280;11491;41.942;24.220;2023-02-23T13:28:46;89756.88;;;11.66;58.26